createdAt,value
2019-01-13T00:04:49.013Z,21.7
2019-01-13T00:10:43.992Z,21.74
2019-01-13T00:16:39.005Z,19.43
2019-01-13T00:22:34.006Z,19.2
2019-01-13T00:28:29.015Z,18.72
2019-01-13T00:34:24.071Z,16.91
2019-01-13T00:40:19.030Z,15.68
2019-01-13T00:46:14.031Z,17
2019-01-13T00:52:09.055Z,18.75
2019-01-13T00:58:04.036Z,19.68
2019-01-13T01:03:59.042Z,19.7
2019-01-13T01:09:54.041Z,21.78
2019-01-13T01:15:49.103Z,18.3
2019-01-13T01:21:44.070Z,17.43
2019-01-13T01:27:39.040Z,17.96
2019-01-13T01:33:34.087Z,17.2
2019-01-13T01:39:29.036Z,17.03
2019-01-13T01:45:24.045Z,14.42
2019-01-13T01:51:19.080Z,15.16
2019-01-13T01:57:14.057Z,16.19
2019-01-13T02:03:09.091Z,16.81
2019-01-13T02:09:04.080Z,21.75
2019-01-13T02:14:59.081Z,20.82
2019-01-13T02:20:54.060Z,18.39
2019-01-13T02:26:49.073Z,17.73
2019-01-13T02:32:44.115Z,16.77
2019-01-13T02:38:39.082Z,17.27
2019-01-13T02:44:34.097Z,17.34
2019-01-13T02:50:29.144Z,15.26
2019-01-13T02:56:24.079Z,16.18
2019-01-13T03:02:19.094Z,21.84
2019-01-13T03:08:14.125Z,20.7
2019-01-13T03:14:09.095Z,21.51
2019-01-13T03:20:04.140Z,23.13
2019-01-13T03:25:59.115Z,21.34
2019-01-13T03:31:54.129Z,18.59
2019-01-13T03:37:49.136Z,19.47
2019-01-13T03:43:44.125Z,20.84
2019-01-13T03:49:39.141Z,22.71
2019-01-13T03:55:34.127Z,20.31
2019-01-13T04:01:29.124Z,22.25
2019-01-13T04:07:24.140Z,21.48
2019-01-13T04:13:19.150Z,26.2
2019-01-13T04:19:14.128Z,24.36
2019-01-13T04:25:09.149Z,24.64
2019-01-13T04:31:04.178Z,24.46
2019-01-13T04:36:59.141Z,23.35
2019-01-13T04:42:54.148Z,22.54
2019-01-13T04:48:49.145Z,23.03
2019-01-13T04:54:44.143Z,23.91
2019-01-13T05:00:39.142Z,22.05
2019-01-13T05:06:34.207Z,22.65
2019-01-13T05:12:29.194Z,21.59
2019-01-13T05:18:24.159Z,22.64
2019-01-13T05:24:19.179Z,22.42
2019-01-13T05:30:14.173Z,23.05
2019-01-13T05:36:09.176Z,23.52
2019-01-13T05:42:04.250Z,20.46
2019-01-13T05:47:59.185Z,22.18
2019-01-13T05:53:54.176Z,23.36
2019-01-13T05:59:49.207Z,24.64
2019-01-13T06:05:44.181Z,26.7
2019-01-13T06:11:39.191Z,27.38
2019-01-13T06:17:34.211Z,26.51
2019-01-13T06:23:29.222Z,23.6
2019-01-13T06:29:24.196Z,22.19
2019-01-13T06:35:19.199Z,20.85
2019-01-13T06:41:14.209Z,22.95
2019-01-13T06:47:09.205Z,23.12
2019-01-13T06:53:04.216Z,25.71
2019-01-13T06:58:59.203Z,27.43
2019-01-13T07:04:54.220Z,27.7
2019-01-13T07:10:49.254Z,27.64
2019-01-13T07:16:44.218Z,25.95
2019-01-13T07:22:39.208Z,27.41
2019-01-13T07:28:34.217Z,24.61
2019-01-13T07:34:29.210Z,25.12
2019-01-13T07:40:24.260Z,20.78
2019-01-13T07:46:19.225Z,20.24
2019-01-13T07:52:14.258Z,24.89
2019-01-13T07:58:09.242Z,24.96
2019-01-13T08:04:04.240Z,21.69
2019-01-13T08:09:59.263Z,25.91
2019-01-13T08:15:54.267Z,25.55
2019-01-13T08:21:49.242Z,25.35
2019-01-13T08:27:44.280Z,24.27
2019-01-13T08:33:39.260Z,21.57
2019-01-13T08:39:34.247Z,27.59
2019-01-13T08:45:29.365Z,31.18
2019-01-13T08:51:24.412Z,30.75
2019-01-13T08:57:19.269Z,30.42
2019-01-13T09:03:15.440Z,35.71
2019-01-13T09:09:09.563Z,35.08
2019-01-13T09:15:04.272Z,40.74
2019-01-13T09:20:59.292Z,41.33
2019-01-13T09:26:54.277Z,39.68
2019-01-13T09:32:49.283Z,42.14
2019-01-13T09:38:44.307Z,43.6
2019-01-13T09:44:39.298Z,45.76
2019-01-13T09:50:34.297Z,45.7
2019-01-13T09:56:29.295Z,47.49
2019-01-13T10:02:24.527Z,50.23
2019-01-13T10:08:19.327Z,49.85
2019-01-13T10:14:14.393Z,54.95
2019-01-13T10:20:09.310Z,55.77
2019-01-13T10:26:04.320Z,57.66
2019-01-13T10:31:59.331Z,59.87
2019-01-13T10:37:54.323Z,64.03
2019-01-13T10:43:49.354Z,64.48
2019-01-13T10:49:44.334Z,74.01
2019-01-13T10:55:39.338Z,64.34
2019-01-13T11:01:34.368Z,71.2
2019-01-13T11:07:29.357Z,107.61
2019-01-13T11:13:24.341Z,95.22
2019-01-13T11:19:19.358Z,62.03
2019-01-13T11:25:14.353Z,58.71
2019-01-13T11:31:09.342Z,141.21
2019-01-13T11:37:04.358Z,135.45
2019-01-13T11:42:59.377Z,111.16
2019-01-13T11:48:54.358Z,56.39
2019-01-13T11:54:49.362Z,56.43
2019-01-13T12:00:44.378Z,49.47
2019-01-13T12:06:39.374Z,43.18
2019-01-13T12:12:34.388Z,53.53
2019-01-13T12:18:29.379Z,53.94
2019-01-13T12:24:24.389Z,48.13
2019-01-13T12:30:19.402Z,46.27
2019-01-13T12:36:14.389Z,44.82
2019-01-13T12:42:09.386Z,45.24
2019-01-13T12:48:04.381Z,47.84
2019-01-13T12:53:59.411Z,47.45
2019-01-13T12:59:54.428Z,51.14
2019-01-13T13:05:49.413Z,66.28
2019-01-13T13:11:44.407Z,58.94
2019-01-13T13:17:39.440Z,48.39
2019-01-13T13:23:34.471Z,41.57
2019-01-13T13:29:29.413Z,35.59
2019-01-13T13:35:24.434Z,33.67
2019-01-13T13:41:19.442Z,21.06
2019-01-13T13:47:14.434Z,61.92
2019-01-13T13:53:09.446Z,45.08
2019-01-13T13:59:04.496Z,36.96
2019-01-13T14:04:59.424Z,64.1
2019-01-13T14:10:54.423Z,46.35
2019-01-13T14:16:49.528Z,42.5
2019-01-13T14:22:44.443Z,37.83
2019-01-13T14:28:39.457Z,47.51
2019-01-13T14:34:34.453Z,50.68
2019-01-13T14:40:29.450Z,48.61
2019-01-13T14:46:24.491Z,42.57
2019-01-13T14:52:19.484Z,37.69
2019-01-13T14:58:15.007Z,37
2019-01-13T15:04:09.475Z,39.12
2019-01-13T15:10:04.500Z,39.02
2019-01-13T15:15:59.471Z,37.71
2019-01-13T15:21:54.521Z,39.03
2019-01-13T15:27:49.500Z,38.03
2019-01-13T15:33:44.554Z,38.12
2019-01-13T15:39:39.499Z,35.6
2019-01-13T15:45:34.512Z,36.81
2019-01-13T15:51:29.486Z,33.13
2019-01-13T15:57:25.351Z,28.44
2019-01-13T16:03:19.547Z,23.47
2019-01-13T16:09:14.546Z,20.08
2019-01-13T16:15:09.566Z,19.71
2019-01-13T16:21:04.525Z,22.77
2019-01-13T16:26:59.557Z,22.78
2019-01-13T16:32:54.546Z,24.46
2019-01-13T16:38:49.537Z,28.93
2019-01-13T16:44:44.590Z,22.6
2019-01-13T16:50:39.589Z,15.57
2019-01-13T16:56:34.562Z,15.01
2019-01-13T17:02:33.141Z,12.19
2019-01-13T17:08:24.594Z,14.9
2019-01-13T17:14:19.580Z,14.86
2019-01-13T17:20:14.538Z,15.69
2019-01-13T17:26:09.547Z,13.68
2019-01-13T17:32:04.567Z,13.74
2019-01-13T17:37:59.594Z,11.68
2019-01-13T17:43:54.559Z,8.24
2019-01-13T17:49:49.559Z,8.09
2019-01-13T17:55:44.554Z,9.38
2019-01-13T18:01:39.630Z,11.85
2019-01-13T18:07:34.587Z,14.55
2019-01-13T18:13:29.612Z,18.68
2019-01-13T18:19:24.581Z,17.41
2019-01-13T18:25:19.591Z,14.35
2019-01-13T18:31:14.623Z,19.94
2019-01-13T18:37:09.657Z,22.85
2019-01-13T18:43:04.604Z,22.02
2019-01-13T18:48:59.651Z,18.11
2019-01-13T18:54:54.628Z,15.62
2019-01-13T19:00:49.607Z,15.48
2019-01-13T19:06:44.639Z,12.64
2019-01-13T19:12:39.619Z,12.57
2019-01-13T19:18:34.676Z,11.42
2019-01-13T19:24:29.657Z,10.53
2019-01-13T19:30:24.620Z,10.72
2019-01-13T19:36:19.654Z,10.83
2019-01-13T19:42:14.642Z,9.73
2019-01-13T19:48:09.641Z,11.01
2019-01-13T19:54:04.653Z,13.35
2019-01-13T19:59:59.667Z,14.27
2019-01-13T20:05:54.649Z,19.56
2019-01-13T20:11:49.656Z,34.52
2019-01-13T20:17:44.638Z,38.33
2019-01-13T20:23:39.724Z,35.81
2019-01-13T20:29:34.711Z,33.27
2019-01-13T20:35:29.694Z,21.27
2019-01-13T20:41:24.701Z,22.88
2019-01-13T20:47:19.675Z,16.82
2019-01-13T20:53:14.702Z,17.91
2019-01-13T20:59:09.660Z,21.49
2019-01-13T21:05:04.674Z,21.77
2019-01-13T21:10:59.665Z,15.77
2019-01-13T21:16:54.682Z,20.45
2019-01-13T21:22:49.681Z,19.16
2019-01-13T21:28:44.703Z,23.68
2019-01-13T21:34:39.703Z,31.11
2019-01-13T21:40:34.697Z,30.5
2019-01-13T21:46:29.713Z,31.89
2019-01-13T21:52:24.699Z,36.79
2019-01-13T21:58:19.720Z,37.81
2019-01-13T22:04:14.731Z,35.16
2019-01-13T22:10:09.729Z,38.6
2019-01-13T22:16:04.705Z,36.26
2019-01-13T22:21:59.716Z,37.56
2019-01-13T22:27:54.718Z,35.43
2019-01-13T22:33:49.739Z,33.81
2019-01-13T22:39:44.785Z,34.76
2019-01-13T22:45:39.735Z,31.63
2019-01-13T22:51:34.746Z,33.97
2019-01-13T22:57:29.734Z,41.51
2019-01-13T23:03:24.733Z,56.84
2019-01-13T23:09:19.752Z,53.3
2019-01-13T23:15:14.762Z,48.72
2019-01-13T23:21:09.761Z,48.9
2019-01-13T23:27:04.762Z,43.72
2019-01-13T23:32:59.798Z,44.2
2019-01-13T23:38:54.767Z,37.97
2019-01-13T23:44:49.764Z,38.55
2019-01-13T23:50:44.814Z,38.84
2019-01-13T23:56:39.782Z,33.2
